createdAt,value
2019-03-30T00:00:01.797Z,6.20
2019-03-30T00:02:29.307Z,6.50
2019-03-30T00:04:56.526Z,6.40
2019-03-30T00:07:23.724Z,6.47
2019-03-30T00:09:50.966Z,6.27
2019-03-30T00:12:18.161Z,6.07
2019-03-30T00:14:45.381Z,6.03
2019-03-30T00:17:12.587Z,6.33
2019-03-30T00:19:39.819Z,5.93
2019-03-30T00:22:07.318Z,6.13
2019-03-30T00:24:34.879Z,6.10
2019-03-30T00:27:02.105Z,6.40
2019-03-30T00:29:29.349Z,6.03
2019-03-30T00:31:56.561Z,6.50
2019-03-30T00:34:23.802Z,6.13
2019-03-30T00:36:51.346Z,6.60
2019-03-30T00:39:18.558Z,6.03
2019-03-30T00:41:45.782Z,6.40
2019-03-30T00:44:13.005Z,5.90
2019-03-30T00:46:40.549Z,6.67
2019-03-30T00:49:07.766Z,6.20
2019-03-30T00:51:35.015Z,7.67
2019-03-30T00:54:02.246Z,6.30
2019-03-30T00:56:29.454Z,6.80
2019-03-30T00:58:56.690Z,6.33
2019-03-30T01:01:23.894Z,6.20
2019-03-30T01:03:51.119Z,7.03
2019-03-30T01:06:18.324Z,6.20
2019-03-30T01:08:45.546Z,6.73
2019-03-30T01:11:13.057Z,6.90
2019-03-30T01:13:40.268Z,6.60
2019-03-30T01:16:07.766Z,6.90
2019-03-30T01:18:35.006Z,7.03
2019-03-30T01:21:02.202Z,7.13
2019-03-30T01:23:29.729Z,6.77
2019-03-30T01:25:57.286Z,6.50
2019-03-30T01:28:24.513Z,6.13
2019-03-30T01:30:51.731Z,7.17
2019-03-30T01:33:18.987Z,6.47
2019-03-30T01:35:46.198Z,6.47
2019-03-30T01:38:13.405Z,6.70
2019-03-30T01:40:40.630Z,6.40
2019-03-30T01:43:07.861Z,5.90
2019-03-30T01:45:35.397Z,6.30
2019-03-30T01:48:02.605Z,6.13
2019-03-30T01:50:29.833Z,6.23
2019-03-30T01:52:58.182Z,5.97
2019-03-30T01:55:25.413Z,6.07
2019-03-30T01:57:52.614Z,6.37
2019-03-30T02:00:19.826Z,6.27
2019-03-30T02:02:47.062Z,7.07
2019-03-30T02:05:14.253Z,6.77
2019-03-30T02:07:41.782Z,6.53
2019-03-30T02:10:09.369Z,6.90
2019-03-30T02:12:36.630Z,6.97
2019-03-30T02:15:05.489Z,6.80
2019-03-30T02:17:32.689Z,6.53
2019-03-30T02:19:59.904Z,7.17
2019-03-30T02:22:27.199Z,6.40
2019-03-30T02:24:54.400Z,6.90
2019-03-30T02:27:21.626Z,6.73
2019-03-30T02:29:48.867Z,7.33
2019-03-30T02:32:16.098Z,7.60
2019-03-30T02:34:43.308Z,7.33
2019-03-30T02:37:10.539Z,7.07
2019-03-30T02:39:37.750Z,7.23
2019-03-30T02:42:04.975Z,7.30
2019-03-30T02:44:32.200Z,7.90
2019-03-30T02:46:59.651Z,8.10
2019-03-30T02:49:26.880Z,7.47
2019-03-30T02:51:54.363Z,7.20
2019-03-30T02:54:21.600Z,7.97
2019-03-30T02:56:48.809Z,7.67
2019-03-30T02:59:16.025Z,8.30
2019-03-30T03:01:43.593Z,8.70
2019-03-30T03:04:10.823Z,8.03
2019-03-30T03:06:38.053Z,7.80
2019-03-30T03:09:07.988Z,8.47
2019-03-30T03:11:35.222Z,8.07
2019-03-30T03:14:02.502Z,8.63
2019-03-30T03:16:29.712Z,7.93
2019-03-30T03:18:57.577Z,7.83
2019-03-30T03:21:24.785Z,8.10
2019-03-30T03:23:52.027Z,8.60
2019-03-30T03:26:19.246Z,7.33
2019-03-30T03:28:46.485Z,8.60
2019-03-30T03:31:13.725Z,8.23
2019-03-30T03:33:40.963Z,8.10
2019-03-30T03:36:08.472Z,8.30
2019-03-30T03:38:35.704Z,7.93
2019-03-30T03:41:03.280Z,8.20
2019-03-30T03:43:30.485Z,8.00
2019-03-30T03:45:57.701Z,7.57
2019-03-30T03:48:24.932Z,8.67
2019-03-30T03:50:53.713Z,7.93
2019-03-30T03:53:20.986Z,7.47
2019-03-30T03:55:48.224Z,7.73
2019-03-30T03:58:15.504Z,8.63
2019-03-30T04:00:42.963Z,8.07
2019-03-30T04:03:10.951Z,7.57
2019-03-30T04:05:39.068Z,8.50
2019-03-30T04:08:07.931Z,7.83
2019-03-30T04:10:36.769Z,8.47
2019-03-30T04:13:07.132Z,8.90
2019-03-30T04:15:34.350Z,8.23
2019-03-30T04:18:01.592Z,8.63
2019-03-30T04:20:29.138Z,8.80
2019-03-30T04:22:56.333Z,8.93
2019-03-30T04:25:23.866Z,8.80
2019-03-30T04:27:51.395Z,8.90
2019-03-30T04:30:18.607Z,8.53
2019-03-30T04:32:45.807Z,8.60
2019-03-30T04:35:13.074Z,8.60
2019-03-30T04:37:40.403Z,8.43
2019-03-30T04:40:07.814Z,8.67
2019-03-30T04:42:35.047Z,8.80
2019-03-30T04:45:02.663Z,8.33
2019-03-30T04:47:29.880Z,8.73
2019-03-30T04:49:57.102Z,8.60
2019-03-30T04:52:24.314Z,7.77
2019-03-30T04:54:51.537Z,9.03
2019-03-30T04:57:19.025Z,8.60
2019-03-30T04:59:46.266Z,8.87
2019-03-30T05:02:13.553Z,8.57
2019-03-30T05:04:40.762Z,9.00
2019-03-30T05:07:08.101Z,8.73
2019-03-30T05:09:35.601Z,8.97
2019-03-30T05:12:02.804Z,9.10
2019-03-30T05:14:30.030Z,8.27
2019-03-30T05:16:57.551Z,8.60
2019-03-30T05:19:24.824Z,8.90
2019-03-30T05:21:52.026Z,8.43
2019-03-30T05:24:19.219Z,8.03
2019-03-30T05:26:46.450Z,7.93
2019-03-30T05:29:13.665Z,8.10
2019-03-30T05:31:40.900Z,7.83
2019-03-30T05:34:08.130Z,8.63
2019-03-30T05:36:35.353Z,7.97
2019-03-30T05:39:02.573Z,8.47
2019-03-30T05:41:29.792Z,7.70
2019-03-30T05:43:57.019Z,7.73
2019-03-30T05:46:24.262Z,7.77
2019-03-30T05:48:51.468Z,7.93
2019-03-30T05:51:18.706Z,7.87
2019-03-30T05:53:45.906Z,7.37
2019-03-30T05:56:13.142Z,7.63
2019-03-30T05:58:40.369Z,7.60
2019-03-30T06:01:07.578Z,8.00
2019-03-30T06:03:35.118Z,8.03
2019-03-30T06:06:02.352Z,7.70
2019-03-30T06:08:29.555Z,7.83
2019-03-30T06:10:56.802Z,7.57
2019-03-30T06:13:24.041Z,7.57
2019-03-30T06:15:51.578Z,8.83
2019-03-30T06:18:18.823Z,12.67
2019-03-30T06:20:46.045Z,10.87
2019-03-30T06:23:13.269Z,11.97
2019-03-30T06:25:40.514Z,8.63
2019-03-30T06:28:07.747Z,8.30
2019-03-30T06:30:34.985Z,7.53
2019-03-30T06:33:02.203Z,7.60
2019-03-30T06:35:29.696Z,7.57
2019-03-30T06:37:56.910Z,7.57
2019-03-30T06:40:24.141Z,7.53
2019-03-30T06:42:51.653Z,7.23
2019-03-30T06:45:19.214Z,8.00
2019-03-30T06:47:46.417Z,7.83
2019-03-30T06:50:14.029Z,7.43
2019-03-30T06:52:56.399Z,7.93
2019-03-30T06:55:10.613Z,7.97
2019-03-30T06:57:37.840Z,7.80
2019-03-30T07:00:06.206Z,8.07
2019-03-30T07:02:33.447Z,7.80
2019-03-30T07:05:00.641Z,7.90
2019-03-30T07:07:28.679Z,7.90
2019-03-30T07:09:56.748Z,7.87
2019-03-30T07:12:24.624Z,8.07
2019-03-30T07:14:53.101Z,7.93
2019-03-30T07:17:20.399Z,8.20
2019-03-30T07:19:48.779Z,8.07
2019-03-30T07:22:16.057Z,7.80
2019-03-30T07:24:43.282Z,8.37
2019-03-30T07:27:10.783Z,7.83
2019-03-30T07:29:38.038Z,8.47
2019-03-30T07:32:05.490Z,8.53
2019-03-30T07:34:33.046Z,8.77
2019-03-30T07:37:00.602Z,8.57
2019-03-30T07:39:28.067Z,8.40
2019-03-30T07:41:55.622Z,8.33
2019-03-30T07:44:23.181Z,9.07
2019-03-30T07:46:50.394Z,7.87
2019-03-30T07:49:17.922Z,8.20
2019-03-30T07:51:45.452Z,8.30
2019-03-30T07:54:12.675Z,8.80
2019-03-30T07:56:39.877Z,8.13
2019-03-30T07:59:07.130Z,9.17
2019-03-30T08:01:34.338Z,8.97
2019-03-30T08:04:01.927Z,8.93
2019-03-30T08:06:29.192Z,8.83
2019-03-30T08:08:56.419Z,8.87
2019-03-30T08:11:23.966Z,8.93
2019-03-30T08:13:51.530Z,9.10
2019-03-30T08:16:18.785Z,9.30
2019-03-30T08:18:46.330Z,8.90
2019-03-30T08:21:13.807Z,8.63
2019-03-30T08:23:41.355Z,8.97
2019-03-30T08:26:08.615Z,8.87
2019-03-30T08:28:35.825Z,8.70
2019-03-30T08:31:03.311Z,8.90
2019-03-30T08:33:30.540Z,9.07
2019-03-30T08:35:57.740Z,8.73
2019-03-30T08:38:24.977Z,8.53
2019-03-30T08:40:52.209Z,9.33
2019-03-30T08:43:19.417Z,8.77
2019-03-30T08:45:48.920Z,9.00
2019-03-30T08:48:15.606Z,9.17
2019-03-30T08:50:42.829Z,9.40
2019-03-30T08:53:10.112Z,8.40
2019-03-30T08:55:37.974Z,8.97
2019-03-30T08:58:05.531Z,8.83
2019-03-30T09:00:39.522Z,8.50
2019-03-30T09:03:06.959Z,8.37
2019-03-30T09:05:34.351Z,10.30
2019-03-30T09:13:36.256Z,8.63
2019-03-30T09:16:03.454Z,8.40
2019-03-30T09:18:33.727Z,8.03
2019-03-30T09:21:00.938Z,8.88
2019-03-30T09:23:29.137Z,7.65
2019-03-30T09:25:56.627Z,7.85
2019-03-30T09:28:23.869Z,8.10
2019-03-30T09:30:51.077Z,7.20
2019-03-30T09:33:18.301Z,8.35
2019-03-30T09:35:45.537Z,8.25
2019-03-30T09:38:14.811Z,7.15
2019-03-30T09:40:42.058Z,7.55
2019-03-30T09:43:09.272Z,8.15
2019-03-30T09:45:36.533Z,7.50
2019-03-30T09:48:03.748Z,7.58
2019-03-30T09:50:31.013Z,8.33
2019-03-30T09:52:58.538Z,7.97
2019-03-30T09:55:27.329Z,7.87
2019-03-30T09:57:54.942Z,8.40
2019-03-30T10:00:22.173Z,7.95
2019-03-30T10:02:49.405Z,7.65
2019-03-30T10:05:16.724Z,7.85
2019-03-30T10:07:43.959Z,8.03
2019-03-30T10:10:11.263Z,7.97
2019-03-30T10:12:38.467Z,7.83
2019-03-30T10:15:06.577Z,7.05
2019-03-30T10:17:34.103Z,7.45
2019-03-30T10:20:04.754Z,7.92
2019-03-30T10:22:30.370Z,7.58
2019-03-30T10:24:58.543Z,7.72
2019-03-30T10:27:26.281Z,7.50
2019-03-30T10:29:53.521Z,7.53
2019-03-30T10:32:20.734Z,7.65
2019-03-30T10:34:47.947Z,7.60
2019-03-30T10:37:15.185Z,7.47
2019-03-30T10:39:42.401Z,6.85
2019-03-30T10:42:09.893Z,7.03
2019-03-30T10:44:37.350Z,7.25
2019-03-30T10:47:04.606Z,6.87
2019-03-30T10:49:31.822Z,14.78
2019-03-30T10:51:59.314Z,6.53
2019-03-30T10:54:26.538Z,7.05
2019-03-30T10:56:53.766Z,7.28
2019-03-30T10:59:21.050Z,6.95
2019-03-30T11:01:48.272Z,6.37
2019-03-30T11:04:15.871Z,6.58
2019-03-30T11:06:43.115Z,6.72
2019-03-30T11:09:10.325Z,6.22
2019-03-30T11:11:37.558Z,6.17
2019-03-30T11:14:04.756Z,6.22
2019-03-30T11:16:31.973Z,6.25
2019-03-30T11:18:59.230Z,6.20
2019-03-30T11:21:26.432Z,6.25
2019-03-30T11:23:53.641Z,6.37
2019-03-30T11:26:21.140Z,6.28
2019-03-30T11:28:48.377Z,6.67
2019-03-30T11:31:15.847Z,6.47
2019-03-30T11:33:43.054Z,5.97
2019-03-30T11:36:10.322Z,5.90
2019-03-30T11:38:37.550Z,5.97
2019-03-30T11:41:05.051Z,5.83
2019-03-30T11:43:32.305Z,5.40
2019-03-30T11:45:59.873Z,5.87
2019-03-30T11:48:27.095Z,5.77
2019-03-30T11:50:54.322Z,4.97
2019-03-30T11:53:21.568Z,4.87
2019-03-30T11:55:48.773Z,5.37
2019-03-30T11:58:16.221Z,5.67
2019-03-30T12:00:43.429Z,6.60
2019-03-30T12:03:10.677Z,5.60
2019-03-30T12:05:37.885Z,5.40
2019-03-30T12:08:05.087Z,5.80
2019-03-30T12:10:32.333Z,4.60
2019-03-30T12:12:59.581Z,5.90
2019-03-30T12:15:26.790Z,5.70
2019-03-30T12:17:54.014Z,4.63
2019-03-30T12:20:21.586Z,5.70
2019-03-30T12:22:48.825Z,5.63
2019-03-30T12:25:16.033Z,5.73
2019-03-30T12:27:43.262Z,5.60
2019-03-30T12:30:10.744Z,5.80
2019-03-30T12:32:38.253Z,5.90
2019-03-30T12:35:06.833Z,6.00
2019-03-30T12:37:34.070Z,5.70
2019-03-30T12:40:01.276Z,5.83
2019-03-30T12:42:28.529Z,6.07
2019-03-30T12:44:56.053Z,6.00
2019-03-30T12:47:23.254Z,5.43
2019-03-30T12:49:50.758Z,5.33
2019-03-30T12:52:18.209Z,5.30
2019-03-30T12:54:45.678Z,5.80
2019-03-30T12:57:13.230Z,4.93
2019-03-30T12:59:40.430Z,5.10
2019-03-30T13:02:07.675Z,4.50
2019-03-30T13:04:34.902Z,4.83
2019-03-30T13:07:02.131Z,4.43
2019-03-30T13:09:29.358Z,4.67
2019-03-30T13:11:56.583Z,5.07
2019-03-30T13:14:29.619Z,4.70
2019-03-30T13:16:56.897Z,4.73
2019-03-30T13:19:24.440Z,4.73
2019-03-30T13:21:52.815Z,4.80
2019-03-30T13:24:20.745Z,4.30
2019-03-30T13:26:48.226Z,4.23
2019-03-30T13:29:15.499Z,4.00
2019-03-30T13:31:42.696Z,4.37
2019-03-30T13:34:09.930Z,4.67
2019-03-30T13:36:41.642Z,6.27
2019-03-30T13:39:09.094Z,5.60
2019-03-30T13:41:36.398Z,6.47
2019-03-30T13:44:04.215Z,5.93
2019-03-30T13:46:31.438Z,5.93
2019-03-30T13:48:58.650Z,5.70
2019-03-30T13:51:25.878Z,5.80
2019-03-30T13:53:53.083Z,6.53
2019-03-30T13:56:20.317Z,4.73
2019-03-30T13:58:47.631Z,5.83
2019-03-30T14:01:14.851Z,12.87
2019-03-30T14:03:42.422Z,4.60
2019-03-30T14:06:09.635Z,13.67
2019-03-30T14:08:37.130Z,6.07
2019-03-30T14:11:04.711Z,5.53
2019-03-30T14:13:32.250Z,5.25
2019-03-30T14:15:59.485Z,5.60
2019-03-30T14:18:27.062Z,5.50
2019-03-30T14:20:54.307Z,5.87
2019-03-30T14:23:21.559Z,5.90
2019-03-30T14:25:48.748Z,5.47
2019-03-30T14:28:16.272Z,5.20
2019-03-30T14:30:43.474Z,5.63
2019-03-30T14:33:10.773Z,5.23
2019-03-30T14:35:38.338Z,5.90
2019-03-30T14:38:05.541Z,5.27
2019-03-30T14:40:32.738Z,5.17
2019-03-30T14:43:00.304Z,5.70
2019-03-30T14:45:27.546Z,5.87
2019-03-30T14:47:57.789Z,6.00
2019-03-30T14:50:23.715Z,7.50
2019-03-30T14:52:51.242Z,7.10
2019-03-30T14:55:18.703Z,6.67
2019-03-30T14:57:45.925Z,6.83
2019-03-30T15:00:13.661Z,6.93
2019-03-30T15:02:40.935Z,6.30
2019-03-30T15:05:08.202Z,5.77
2019-03-30T15:07:35.775Z,6.83
2019-03-30T15:10:03.875Z,6.83
2019-03-30T15:12:31.101Z,7.00
2019-03-30T15:14:58.309Z,7.30
2019-03-30T15:17:25.531Z,6.70
2019-03-30T15:19:52.766Z,7.23
2019-03-30T15:22:19.978Z,6.13
2019-03-30T15:24:47.206Z,6.70
2019-03-30T15:27:14.415Z,6.40
2019-03-30T15:29:41.642Z,6.23
2019-03-30T15:32:08.842Z,6.30
2019-03-30T15:34:36.118Z,6.53
2019-03-30T15:37:03.615Z,6.83
2019-03-30T15:39:30.818Z,5.87
2019-03-30T15:41:58.045Z,6.47
2019-03-30T15:44:25.268Z,6.53
2019-03-30T15:46:52.797Z,7.07
2019-03-30T15:49:20.025Z,6.20
2019-03-30T15:51:47.249Z,6.23
2019-03-30T15:54:14.464Z,6.07
2019-03-30T15:56:41.697Z,6.83
2019-03-30T15:59:08.902Z,6.70
2019-03-30T16:01:36.433Z,7.37
2019-03-30T16:04:03.991Z,7.63
2019-03-30T16:06:31.195Z,7.40
2019-03-30T16:08:58.708Z,7.50
2019-03-30T16:11:26.254Z,8.40
2019-03-30T16:13:53.461Z,9.23
2019-03-30T16:16:20.728Z,8.73
2019-03-30T16:18:47.958Z,9.63
2019-03-30T16:21:15.159Z,9.30
2019-03-30T16:23:42.411Z,9.43
2019-03-30T16:26:09.624Z,9.93
2019-03-30T16:28:36.853Z,11.00
2019-03-30T16:31:04.165Z,10.10
2019-03-30T16:33:31.722Z,10.13
2019-03-30T16:36:02.573Z,10.33
2019-03-30T16:38:28.479Z,9.80
2019-03-30T16:40:55.718Z,9.20
2019-03-30T16:43:23.190Z,9.23
2019-03-30T16:45:50.743Z,9.30
2019-03-30T16:48:17.950Z,9.03
2019-03-30T16:50:45.448Z,9.37
2019-03-30T16:53:13.030Z,10.07
2019-03-30T16:55:40.485Z,9.30
2019-03-30T16:58:07.729Z,9.00
2019-03-30T17:00:35.022Z,8.97
2019-03-30T17:03:03.361Z,9.03
2019-03-30T17:05:30.569Z,8.97
2019-03-30T17:07:58.159Z,10.33
2019-03-30T17:10:25.390Z,9.90
2019-03-30T17:12:52.862Z,9.87
2019-03-30T17:15:20.091Z,10.50
2019-03-30T17:17:47.321Z,9.77
2019-03-30T17:20:14.817Z,10.07
2019-03-30T17:22:42.385Z,10.37
2019-03-30T17:25:09.938Z,10.77
2019-03-30T17:27:37.163Z,10.80
2019-03-30T17:30:06.596Z,10.77
2019-03-30T17:32:33.805Z,11.43
2019-03-30T17:35:01.426Z,11.10
2019-03-30T17:37:28.645Z,11.73
2019-03-30T17:39:55.878Z,12.20
2019-03-30T17:42:23.385Z,11.03
2019-03-30T17:44:50.637Z,11.00
2019-03-30T17:47:17.845Z,10.90
2019-03-30T17:49:45.069Z,10.43
2019-03-30T17:52:12.370Z,10.43
2019-03-30T17:54:39.987Z,11.33
2019-03-30T17:57:07.374Z,11.00
2019-03-30T17:59:34.614Z,11.43
2019-03-30T18:02:01.831Z,11.37
2019-03-30T18:04:29.065Z,11.60
2019-03-30T18:06:56.301Z,11.27
2019-03-30T18:09:23.526Z,11.43
2019-03-30T18:11:50.774Z,10.67
2019-03-30T18:14:18.017Z,10.37
2019-03-30T18:16:45.498Z,12.30
2019-03-30T18:19:13.052Z,12.43
2019-03-30T18:21:40.294Z,11.90
2019-03-30T18:24:07.866Z,12.13
2019-03-30T18:26:35.103Z,11.60
2019-03-30T18:29:02.681Z,11.47
2019-03-30T18:31:29.918Z,11.63
2019-03-30T18:33:57.134Z,11.73
2019-03-30T18:36:26.503Z,12.13
2019-03-30T18:39:08.814Z,11.60
2019-03-30T18:41:24.453Z,12.40
2019-03-30T18:43:52.161Z,15.83
2019-03-30T18:46:19.374Z,16.80
2019-03-30T18:48:46.609Z,16.97
2019-03-30T18:51:13.981Z,16.27
2019-03-30T18:53:41.693Z,13.43
2019-03-30T18:56:08.910Z,14.03
2019-03-30T18:58:41.819Z,14.73
2019-03-30T19:01:05.446Z,13.83
2019-03-30T19:03:32.660Z,13.83
2019-03-30T19:06:00.152Z,14.37
2019-03-30T19:08:27.381Z,14.20
2019-03-30T19:10:54.630Z,15.30
2019-03-30T19:13:21.838Z,13.70
2019-03-30T19:15:49.091Z,13.37
2019-03-30T19:18:16.610Z,13.20
2019-03-30T19:20:43.835Z,14.37
2019-03-30T19:23:11.080Z,14.13
2019-03-30T19:25:38.311Z,15.10
2019-03-30T19:28:05.824Z,13.63
2019-03-30T19:30:33.025Z,14.97
2019-03-30T19:33:00.278Z,13.30
2019-03-30T19:35:27.777Z,13.33
2019-03-30T19:37:54.986Z,13.70
2019-03-30T19:40:22.488Z,13.53
2019-03-30T19:42:49.694Z,13.60
2019-03-30T19:45:16.964Z,14.93
2019-03-30T19:47:44.155Z,13.17
2019-03-30T19:50:11.694Z,13.60
2019-03-30T19:52:40.211Z,14.40
2019-03-30T19:55:07.847Z,14.37
2019-03-30T19:57:35.057Z,14.37
2019-03-30T20:00:02.311Z,14.77
2019-03-30T20:02:29.551Z,14.30
2019-03-30T20:04:56.773Z,14.80
2019-03-30T20:07:24.019Z,14.57
2019-03-30T20:09:51.266Z,15.37
2019-03-30T20:12:18.586Z,16.43
2019-03-30T20:14:46.054Z,15.93
2019-03-30T20:17:13.270Z,17.97
2019-03-30T20:19:40.513Z,16.13
2019-03-30T20:22:07.825Z,16.60
2019-03-30T20:24:35.361Z,16.17
2019-03-30T20:27:03.006Z,17.83
2019-03-30T20:29:30.485Z,16.07
2019-03-30T20:31:57.727Z,17.83
2019-03-30T20:34:24.962Z,17.77
2019-03-30T20:36:52.190Z,16.97
2019-03-30T20:39:19.427Z,16.30
2019-03-30T20:41:46.646Z,19.13
2019-03-30T20:44:14.210Z,19.87
2019-03-30T20:46:43.663Z,19.97
2019-03-30T20:49:11.062Z,20.37
2019-03-30T20:51:38.274Z,20.37
2019-03-30T20:54:05.542Z,20.00
2019-03-30T20:56:32.790Z,19.43
2019-03-30T20:58:59.994Z,18.73
2019-03-30T21:01:27.242Z,17.97
2019-03-30T21:03:54.493Z,17.73
2019-03-30T21:06:22.013Z,18.40
2019-03-30T21:08:49.226Z,20.60
2019-03-30T21:11:16.725Z,20.20
2019-03-30T21:13:43.964Z,19.83
2019-03-30T21:16:11.207Z,21.50
2019-03-30T21:18:38.435Z,18.33
2019-03-30T21:21:09.017Z,18.90
2019-03-30T21:23:34.606Z,17.60
2019-03-30T21:26:01.814Z,16.10
2019-03-30T21:28:29.053Z,15.10
2019-03-30T21:30:56.574Z,16.47
2019-03-30T21:33:23.805Z,16.33
2019-03-30T21:35:51.043Z,14.13
2019-03-30T21:38:18.258Z,14.77
2019-03-30T21:40:45.511Z,15.73
2019-03-30T21:43:12.753Z,14.77
2019-03-30T21:45:39.962Z,14.77
2019-03-30T21:48:07.222Z,14.33
2019-03-30T21:50:34.442Z,13.63
2019-03-30T21:53:01.659Z,14.17
2019-03-30T21:55:28.890Z,12.83
2019-03-30T21:57:56.107Z,13.63
2019-03-30T22:00:33.300Z,13.67
2019-03-30T22:03:00.883Z,13.33
2019-03-30T22:05:28.131Z,13.40
2019-03-30T22:07:55.893Z,12.90
2019-03-30T22:10:29.139Z,12.70
2019-03-30T22:12:56.360Z,12.77
2019-03-30T22:15:27.337Z,12.93
2019-03-30T22:17:54.843Z,15.17
2019-03-30T22:20:22.067Z,17.10
2019-03-30T22:22:49.982Z,12.53
2019-03-30T22:25:17.515Z,12.47
2019-03-30T22:27:44.759Z,11.77
2019-03-30T22:30:24.133Z,11.87
2019-03-30T22:32:41.025Z,11.43
2019-03-30T22:35:08.317Z,12.47
2019-03-30T22:37:35.546Z,13.07
2019-03-30T22:40:02.835Z,12.33
2019-03-30T22:42:30.418Z,12.17
2019-03-30T22:44:57.630Z,12.23
2019-03-30T22:47:24.894Z,12.40
2019-03-30T22:49:52.101Z,12.00
2019-03-30T22:52:20.442Z,12.63
2019-03-30T22:54:48.110Z,12.53
2019-03-30T22:57:15.661Z,12.13
2019-03-30T22:59:42.873Z,12.63
2019-03-30T23:02:10.098Z,13.00
2019-03-30T23:04:37.621Z,12.90
2019-03-30T23:07:04.968Z,12.70
2019-03-30T23:09:32.435Z,12.70
2019-03-30T23:11:59.895Z,12.53
2019-03-30T23:14:27.123Z,13.30
2019-03-30T23:16:54.373Z,12.23
2019-03-30T23:19:21.593Z,13.00
2019-03-30T23:21:49.104Z,12.83
2019-03-30T23:24:16.340Z,11.30
2019-03-30T23:26:43.549Z,13.10
2019-03-30T23:29:11.071Z,13.33
2019-03-30T23:31:38.619Z,12.00
2019-03-30T23:34:06.105Z,12.90
2019-03-30T23:36:33.393Z,12.23
2019-03-30T23:39:00.887Z,12.57
2019-03-30T23:41:28.442Z,12.20
2019-03-30T23:43:55.677Z,12.17
2019-03-30T23:46:23.150Z,12.70
2019-03-30T23:48:50.389Z,12.80
2019-03-30T23:51:17.629Z,12.37
2019-03-30T23:53:45.126Z,11.67
2019-03-30T23:56:17.075Z,12.83
2019-03-30T23:58:44.312Z,12.70
